Time;durP1;ratioP1;P1;durP2;ratioP2;P2;SDS_P1;SDS_P2;PMS_P1;PMS_P2;Temp;Humidity;BMP_temperature;BMP_pressure;BME280_temperature;BME280_humidity;BME280_pressure;Samples;Min_cycle;Max_cycle;Signal;HPM_P1;HPM_P2
2022/05/01 00:00:29;;;;;;;15.20;13.30;;;;;;;8.18;88.20;102392.84;1038923;28;20307;-79
2022/05/01 00:01:01;;;;;;;19.38;12.93;;;;;;;8.19;87.22;102386.53;1043666;28;20661;-78
2022/05/01 00:01:35;;;;;;;16.70;12.55;;;;;;;8.19;87.69;102383.03;1040779;28;20323;-78
2022/05/01 00:02:07;;;;;;;17.20;13.77;;;;;;;8.18;87.99;102386.69;1043250;28;20425;-78
2022/05/01 00:02:39;;;;;;;14.25;12.85;;;;;;;8.09;88.02;102385.84;1039350;28;20792;-79
2022/05/01 00:04:02;;;;;;;14.85;12.52;;;;;;;8.07;88.06;102387.84;1039241;28;20292;-78
2022/05/01 00:04:34;;;;;;;16.85;13.13;;;;;;;8.13;87.47;102389.84;1039399;28;20577;-78
2022/05/01 00:05:06;;;;;;;15.02;13.50;;;;;;;8.14;88.02;102386.19;1035429;28;20356;-78
2022/05/01 00:05:37;;;;;;;14.75;13.38;;;;;;;8.16;88.00;102386.03;1033844;28;20323;-78
2022/05/01 00:06:10;;;;;;;16.10;14.18;;;;;;;8.22;88.16;102383.56;1031964;28;20298;-78
2022/05/01 00:06:42;;;;;;;14.68;13.15;;;;;;;8.21;88.18;102386.38;1036052;28;20817;-78
2022/05/01 00:07:13;;;;;;;14.23;12.73;;;;;;;8.17;87.99;102380.56;1039634;28;20299;-78
2022/05/01 00:07:45;;;;;;;14.23;12.38;;;;;;;8.21;87.37;102387.19;1039809;28;20310;-78
2022/05/01 00:08:16;;;;;;;16.30;13.23;;;;;;;8.17;87.88;102388.53;1039416;28;20800;-78
2022/05/01 00:08:48;;;;;;;16.00;13.70;;;;;;;7.95;87.99;102375.88;1038931;28;20299;-78
2022/05/01 00:09:19;;;;;;;14.13;12.73;;;;;;;7.80;87.68;102388.06;1039700;28;20794;-78
2022/05/01 00:09:51;;;;;;;15.60;13.45;;;;;;;7.92;88.08;102386.78;1043355;28;20310;-79
2022/05/01 00:10:23;;;;;;;14.77;13.27;;;;;;;8.02;88.43;102387.50;1042711;28;20306;-78
2022/05/01 00:10:54;;;;;;;17.00;13.32;;;;;;;8.05;88.92;102384.53;1043914;28;20302;-78
2022/05/01 00:11:42;;;;;;;15.65;13.30;;;;;;;8.15;88.03;102382.53;1042851;28;20287;-78
2022/05/01 00:12:14;;;;;;;15.05;12.68;;;;;;;8.13;88.37;102378.38;1039053;28;20320;-78
2022/05/01 00:12:45;;;;;;;22.73;13.02;;;;;;;8.12;87.96;102382.88;1039242;28;20311;-79
2022/05/01 00:13:17;;;;;;;13.80;12.02;;;;;;;8.06;87.31;102375.56;1041844;28;20311;-78
2022/05/01 00:13:49;;;;;;;16.25;13.50;;;;;;;7.93;88.03;102385.78;1043517;28;20353;-79
2022/05/01 00:14:20;;;;;;;14.18;12.63;;;;;;;7.81;87.35;102374.66;1043609;28;20299;-78
2022/05/01 00:14:52;;;;;;;17.17;13.55;;;;;;;7.69;87.54;102376.78;1043163;28;20303;-78
2022/05/01 00:15:24;;;;;;;13.90;12.18;;;;;;;7.63;88.14;102377.38;1043551;28;20299;-79
2022/05/01 00:15:56;;;;;;;14.98;12.85;;;;;;;7.71;88.34;102379.25;1043030;28;20317;-78
2022/05/01 00:16:27;;;;;;;17.98;12.77;;;;;;;7.83;87.79;102377.13;1043354;28;20370;-78
2022/05/01 00:17:02;;;;;;;15.48;12.80;;;;;;;7.82;88.39;102380.78;1043442;28;20306;-78
2022/05/01 00:17:33;;;;;;;14.05;12.65;;;;;;;7.89;88.07;102379.16;1043721;28;20299;-78
2022/05/01 00:18:05;;;;;;;14.20;12.80;;;;;;;7.87;87.39;102381.13;1043440;28;20287;-78
2022/05/01 00:18:37;;;;;;;16.88;12.25;;;;;;;7.88;87.18;102380.13;1043567;28;20302;-79
2022/05/01 00:19:09;;;;;;;15.88;12.68;;;;;;;7.88;86.56;102374.84;1043344;28;20295;-78
2022/05/01 00:19:40;;;;;;;16.02;13.25;;;;;;;7.90;86.40;102380.81;1038983;28;20303;-78
2022/05/01 00:20:27;;;;;;;15.20;12.73;;;;;;;7.87;86.68;102367.88;1036745;28;20300;-78
2022/05/01 00:20:58;;;;;;;13.38;12.10;;;;;;;7.85;86.78;102373.34;1041586;28;20296;-78
2022/05/01 00:21:31;;;;;;;12.93;11.73;;;;;;;7.83;87.04;102377.13;1039105;28;20311;-78
2022/05/01 00:22:03;;;;;;;14.63;12.05;;;;;;;7.78;87.45;102374.16;1035142;28;20297;-78
2022/05/01 00:22:35;;;;;;;14.80;12.27;;;;;;;7.80;87.03;102372.16;1031617;28;20312;-78
2022/05/01 00:23:07;;;;;;;16.10;12.98;;;;;;;7.80;87.34;102380.13;1035579;28;20312;-78
2022/05/01 00:23:38;;;;;;;13.50;11.40;;;;;;;7.74;87.50;102371.81;1040037;28;20311;-78
2022/05/01 00:24:10;;;;;;;14.48;12.48;;;;;;;7.77;86.86;102367.19;1039449;28;20304;-78
2022/05/01 00:24:41;;;;;;;14.23;12.38;;;;;;;7.76;87.13;102369.00;1042981;28;20628;-78
2022/05/01 00:25:13;;;;;;;16.45;12.40;;;;;;;7.72;86.82;102368.50;1043476;28;20382;-78
2022/05/01 00:25:45;;;;;;;18.42;12.32;;;;;;;7.74;86.69;102363.84;1043161;28;20303;-78
2022/05/01 00:26:16;;;;;;;14.50;10.88;;;;;;;7.75;87.25;102365.53;1043128;28;20291;-78
2022/05/01 00:26:48;;;;;;;17.85;13.15;;;;;;;7.78;86.81;102363.53;1043521;28;20291;-78
2022/05/01 00:27:20;;;;;;;15.07;12.68;;;;;;;7.75;87.25;102368.16;1038962;28;20303;-78
2022/05/01 00:27:51;;;;;;;13.05;11.73;;;;;;;7.75;86.34;102360.22;1035305;28;20797;-77
2022/05/01 00:28:23;;;;;;;12.77;11.63;;;;;;;7.71;86.80;102358.06;1039358;28;20291;-78
2022/05/01 00:28:55;;;;;;;14.10;12.70;;;;;;;7.77;87.00;102364.53;1039486;28;20312;-78
2022/05/01 00:29:27;;;;;;;15.43;12.65;;;;;;;7.80;86.83;102364.19;1039704;28;20358;-78
2022/05/01 00:29:58;;;;;;;17.13;12.60;;;;;;;7.83;86.42;102359.41;1039439;28;20347;-77
2022/05/01 00:30:30;;;;;;;14.52;12.95;;;;;;;7.86;86.54;102363.56;1034560;28;20305;-78
2022/05/01 00:31:05;;;;;;;15.35;13.18;;;;;;;7.88;86.34;102361.56;1035348;28;20304;-78
2022/05/01 00:31:36;;;;;;;14.30;12.40;;;;;;;7.87;87.09;102367.88;1040448;28;20310;-78
2022/05/01 00:32:08;;;;;;;19.70;12.73;;;;;;;7.85;87.67;102365.38;1039921;28;20304;-78
2022/05/01 00:36:52;;;;;;;20.30;12.85;;;;;;;7.68;89.00;102372.47;1039971;28;20311;-76
2022/05/01 00:37:23;;;;;;;18.10;12.98;;;;;;;7.62;88.93;102370.41;1040697;28;20638;-75
2022/05/01 00:37:55;;;;;;;16.75;12.55;;;;;;;7.80;88.78;102373.00;1041247;28;20292;-75
2022/05/01 00:38:26;;;;;;;14.25;12.80;;;;;;;7.83;89.28;102370.00;1039213;28;20303;-76
2022/05/01 00:39:02;;;;;;;18.88;13.25;;;;;;;7.84;88.79;102368.19;1040172;28;20288;-75
2022/05/01 00:39:34;;;;;;;18.73;13.73;;;;;;;7.86;88.88;102368.88;1041719;28;20794;-76
2022/05/01 00:40:06;;;;;;;17.48;12.95;;;;;;;7.77;89.19;102368.00;1043945;28;20303;-76
2022/05/01 00:40:41;;;;;;;13.05;11.75;;;;;;;7.67;89.18;102368.16;1044389;28;20304;-77
2022/05/01 00:41:14;;;;;;;14.05;12.60;;;;;;;7.63;89.06;102372.09;1043577;28;20294;-78
2022/05/01 00:41:46;;;;;;;14.05;12.68;;;;;;;7.65;89.27;102370.09;1043547;28;20296;-78
2022/05/01 00:42:18;;;;;;;17.75;13.43;;;;;;;7.78;88.16;102366.19;1043467;28;20301;-78
2022/05/01 00:42:50;;;;;;;15.20;12.93;;;;;;;7.77;87.94;102361.88;1043495;28;20291;-78
2022/05/01 00:43:21;;;;;;;15.48;12.70;;;;;;;7.83;87.84;102361.22;1043675;28;20299;-78
2022/05/01 00:44:13;;;;;;;14.57;12.05;;;;;;;7.89;86.64;102365.88;1038633;28;20315;-78
2022/05/01 00:44:44;;;;;;;16.35;12.32;;;;;;;7.85;86.93;102364.53;1033763;28;20285;-78
2022/05/01 00:45:16;;;;;;;17.83;12.18;;;;;;;7.82;87.31;102365.69;1036011;28;20739;-78
2022/05/01 00:45:48;;;;;;;16.65;13.00;;;;;;;7.87;86.91;102357.25;1041013;28;20303;-78
2022/05/01 00:46:20;;;;;;;14.93;12.85;;;;;;;7.83;86.82;102366.53;1039940;28;20296;-78
2022/05/01 00:46:53;;;;;;;19.88;12.18;;;;;;;7.83;87.43;102361.22;1041256;28;20300;-78
2022/05/01 00:47:25;;;;;;;14.95;13.25;;;;;;;7.69;87.73;102362.69;1038541;28;20411;-78
2022/05/01 00:47:57;;;;;;;14.40;12.95;;;;;;;7.75;88.42;102365.53;1035075;28;20307;-78
2022/05/01 00:48:28;;;;;;;16.52;12.13;;;;;;;7.77;87.91;102368.00;1031302;28;20293;-79
2022/05/01 00:49:02;;;;;;;13.18;11.82;;;;;;;7.60;89.14;102366.28;1027911;28;20301;-78
2022/05/01 00:49:34;;;;;;;12.98;11.68;;;;;;;7.67;89.14;102362.84;1035685;28;20305;-79
2022/05/01 00:50:06;;;;;;;15.13;12.70;;;;;;;7.63;89.10;102365.94;1041319;28;20825;-76
2022/05/01 00:50:37;;;;;;;14.45;12.63;;;;;;;7.74;89.30;102371.81;1043378;28;20296;-75
2022/05/01 00:51:09;;;;;;;13.43;12.05;;;;;;;7.80;88.27;102361.56;1043542;28;20314;-76
2022/05/01 00:51:47;;;;;;;13.07;11.80;;;;;;;7.82;87.74;102364.88;1043546;28;20291;-75
2022/05/01 00:52:19;;;;;;;14.80;12.82;;;;;;;7.86;88.05;102363.56;1043668;28;20284;-76
2022/05/01 00:52:52;;;;;;;20.38;13.32;;;;;;;7.87;87.68;102360.75;1043346;28;20303;-75
2022/05/01 00:53:23;;;;;;;23.52;12.70;;;;;;;7.86;87.42;102360.91;1040956;28;20418;-75
2022/05/01 00:53:55;;;;;;;16.52;12.70;;;;;;;7.85;86.36;102369.84;1043781;28;20291;-75
2022/05/01 00:54:31;;;;;;;14.20;12.73;;;;;;;7.88;86.54;102356.25;1039153;28;20296;-75
2022/05/01 00:55:03;;;;;;;14.25;12.40;;;;;;;7.84;86.58;102360.22;1036326;28;20376;-75
2022/05/01 00:55:38;;;;;;;14.48;12.00;;;;;;;7.92;86.78;102360.25;1035332;28;20285;-76
2022/05/01 00:56:10;;;;;;;16.65;13.15;;;;;;;7.90;86.63;102364.88;1034797;28;20304;-75
2022/05/01 00:56:44;;;;;;;13.10;11.93;;;;;;;7.89;86.47;102360.56;1039355;28;20386;-75
2022/05/01 00:57:16;;;;;;;14.40;11.88;;;;;;;7.88;87.05;102358.91;1036378;28;20305;-75
2022/05/01 00:57:48;;;;;;;13.40;12.02;;;;;;;7.92;87.70;102361.09;1040295;28;20796;-76
2022/05/01 00:58:19;;;;;;;17.27;13.30;;;;;;;7.96;87.76;102358.97;1043655;28;20291;-76
2022/05/01 00:58:51;;;;;;;15.55;13.05;;;;;;;7.85;87.28;102356.59;1043239;28;20299;-75
2022/05/01 00:59:23;;;;;;;14.15;12.73;;;;;;;7.90;88.43;102370.19;1043604;28;21262;-75
2022/05/01 00:59:55;;;;;;;15.07;13.57;;;;;;;7.88;87.90;102364.22;1043601;28;20720;-76
2022/05/01 01:00:27;;;;;;;18.40;14.18;;;;;;;7.86;88.36;102371.50;1039124;28;20300;-75
2022/05/01 01:00:58;;;;;;;14.93;13.45;;;;;;;7.82;88.58;102364.88;1039443;28;20284;-76
2022/05/01 01:01:30;;;;;;;15.98;12.90;;;;;;;7.86;88.70;102371.50;1040551;28;20310;-75
2022/05/01 01:02:04;;;;;;;15.07;13.50;;;;;;;7.94;88.74;102364.44;1039917;28;20306;-75
2022/05/01 01:02:37;;;;;;;15.73;13.13;;;;;;;7.97;88.52;102368.59;1036746;28;20305;-76
2022/05/01 01:03:08;;;;;;;15.63;14.00;;;;;;;8.01;88.45;102368.09;1036306;28;20297;-76
2022/05/01 01:03:40;;;;;;;16.58;14.30;;;;;;;8.14;89.06;102369.44;1036764;28;20745;-76
2022/05/01 01:04:13;;;;;;;16.02;14.27;;;;;;;8.05;88.21;102360.63;1036705;28;20301;-76
2022/05/01 01:04:44;;;;;;;14.65;13.25;;;;;;;7.85;89.03;102369.84;1041045;28;20295;-76
2022/05/01 01:05:16;;;;;;;15.18;12.82;;;;;;;7.85;88.51;102369.84;1044269;28;20862;-76
2022/05/01 01:05:48;;;;;;;15.95;13.45;;;;;;;7.85;87.72;102367.19;1044127;28;20303;-75
2022/05/01 01:06:19;;;;;;;14.45;13.07;;;;;;;7.80;87.94;102356.25;1044719;28;20296;-75
2022/05/01 01:06:51;;;;;;;15.82;12.60;;;;;;;7.87;88.28;102365.22;1044457;28;20307;-75
2022/05/01 01:07:25;;;;;;;17.23;11.05;;;;;;;7.88;87.84;102358.91;1044702;28;20291;-75
2022/05/01 01:08:00;;;;;;;14.32;12.93;;;;;;;7.84;87.39;102358.41;1041936;28;20287;-76
2022/05/01 01:08:32;;;;;;;16.08;12.93;;;;;;;7.84;87.10;102352.28;1040182;28;20292;-75
2022/05/01 01:09:05;;;;;;;14.43;12.93;;;;;;;7.77;86.24;102356.56;1040038;28;20808;-75
2022/05/01 01:09:36;;;;;;;17.33;13.23;;;;;;;7.78;86.60;102353.75;1037180;28;20329;-75
2022/05/01 01:10:09;;;;;;;14.20;12.65;;;;;;;7.77;86.63;102354.75;1039955;28;20366;-75
2022/05/01 01:10:41;;;;;;;15.30;12.10;;;;;;;7.84;86.33;102346.97;1035946;28;20300;-74
2022/05/01 01:11:13;;;;;;;14.55;12.88;;;;;;;7.81;86.61;102352.59;1036874;28;20296;-75
2022/05/01 01:11:45;;;;;;;19.90;13.25;;;;;;;7.81;86.85;102363.22;1038592;28;20809;-75
2022/05/01 01:13:07;;;;;;;18.40;13.18;;;;;;;7.75;86.02;102360.22;1040890;28;20304;-75
2022/05/01 01:13:13;;;;;;;14.38;12.52;;;;;;;7.84;86.10;102357.59;1032562;28;20312;-77
2022/05/01 01:13:48;;;;;;;14.30;12.32;;;;;;;7.72;86.81;102359.72;1040678;28;20303;-78
2022/05/01 01:14:22;;;;;;;13.35;12.05;;;;;;;7.71;87.12;102360.69;1041715;28;20303;-78
2022/05/01 01:14:53;;;;;;;17.08;13.15;;;;;;;7.66;86.63;102361.16;1043968;28;20307;-78
2022/05/01 01:15:29;;;;;;;14.10;12.43;;;;;;;7.59;87.04;102354.84;1044749;28;20307;-78
2022/05/01 01:16:07;;;;;;;18.33;12.77;;;;;;;7.66;86.64;102363.81;1045294;28;20295;-78
2022/05/01 01:16:41;;;;;;;18.05;13.18;;;;;;;7.62;87.13;102362.47;1044650;28;20301;-75
2022/05/01 01:17:12;;;;;;;14.13;12.65;;;;;;;7.74;86.91;102363.84;1044668;28;20341;-76
2022/05/01 01:17:46;;;;;;;13.98;12.75;;;;;;;7.61;86.86;102360.81;1044300;28;20303;-76
2022/05/01 01:18:18;;;;;;;16.80;12.70;;;;;;;7.60;88.40;102361.78;1044459;28;20352;-76
2022/05/01 01:18:49;;;;;;;14.75;12.38;;;;;;;7.71;88.70;102363.34;1044657;28;20303;-76
2022/05/01 01:19:21;;;;;;;14.50;12.80;;;;;;;7.79;89.14;102367.84;1043469;28;20385;-75
2022/05/01 01:19:52;;;;;;;16.60;14.00;;;;;;;7.78;89.27;102366.19;1044385;28;20662;-75
2022/05/01 01:20:26;;;;;;;14.82;13.10;;;;;;;7.79;88.88;102373.16;1037430;28;20636;-75
2022/05/01 01:20:58;;;;;;;14.35;12.95;;;;;;;7.62;89.55;102372.25;1036579;28;20308;-75
2022/05/01 01:21:30;;;;;;;14.98;12.43;;;;;;;7.64;89.19;102373.75;1040122;28;20307;-76
2022/05/01 01:22:03;;;;;;;15.10;13.60;;;;;;;7.71;89.99;102368.66;1038691;28;20305;-75
2022/05/01 01:22:36;;;;;;;14.98;13.35;;;;;;;7.73;89.09;102372.81;1044076;28;20301;-75
2022/05/01 01:23:08;;;;;;;13.48;12.18;;;;;;;7.76;89.31;102366.34;1043996;28;20306;-75
2022/05/01 01:23:41;;;;;;;18.08;14.13;;;;;;;7.81;88.54;102368.53;1044362;28;20345;-75
2022/05/01 01:24:13;;;;;;;16.27;13.15;;;;;;;7.72;87.74;102362.38;1039832;28;20833;-75
2022/05/01 01:24:44;;;;;;;14.43;12.95;;;;;;;7.72;88.13;102357.88;1036787;28;20737;-76
2022/05/01 01:25:22;;;;;;;14.65;13.32;;;;;;;7.78;87.09;102364.38;1040384;28;20295;-75
2022/05/01 01:25:54;;;;;;;16.88;13.18;;;;;;;7.79;87.07;102354.59;1035570;28;20648;-75
2022/05/01 01:26:26;;;;;;;18.58;12.82;;;;;;;7.77;86.79;102361.88;1041309;28;20308;-75
2022/05/01 01:26:58;;;;;;;18.63;13.57;;;;;;;7.71;86.51;102366.84;1044048;28;20704;-75
2022/05/01 01:27:29;;;;;;;13.93;12.52;;;;;;;7.73;86.76;102356.91;1036225;28;20655;-76
2022/05/01 01:28:03;;;;;;;13.63;12.32;;;;;;;7.64;86.80;102360.47;1036508;28;20367;-76
2022/05/01 01:28:37;;;;;;;15.25;13.75;;;;;;;7.68;86.70;102353.06;1035328;28;20818;-75
2022/05/01 01:31:40;;;;;;;14.88;13.30;;;;;;;7.61;86.46;102358.16;1038226;28;20046;-76
2022/05/01 01:32:12;;;;;;;12.85;11.63;;;;;;;7.30;87.81;102370.25;1033257;28;20484;-75
2022/05/01 01:32:44;;;;;;;13.85;11.70;;;;;;;7.33;87.80;102364.66;1034591;28;20297;-75
2022/05/01 01:33:15;;;;;;;17.92;12.32;;;;;;;7.23;88.18;102363.94;1039048;28;20299;-75
2022/05/01 01:33:48;;;;;;;14.32;12.63;;;;;;;7.39;88.40;102369.31;1040235;28;20304;-75
2022/05/01 01:34:22;;;;;;;15.63;12.63;;;;;;;7.44;88.64;102367.03;1043941;28;20314;-75
2022/05/01 01:34:54;;;;;;;16.20;12.52;;;;;;;7.40;88.68;102365.69;1039953;28;20840;-75
2022/05/01 01:35:26;;;;;;;16.98;12.25;;;;;;;7.46;89.40;102365.06;1040150;28;20707;-75
2022/05/01 01:36:06;;;;;;;15.27;11.73;;;;;;;7.57;88.82;102369.25;1034565;28;20305;-75
2022/05/01 01:36:38;;;;;;;13.45;11.80;;;;;;;7.58;89.67;102374.38;1037615;28;20352;-75
2022/05/01 01:37:11;;;;;;;12.50;11.27;;;;;;;7.36;89.20;102369.63;1040002;28;20737;-75
2022/05/01 01:37:46;;;;;;;13.52;12.18;;;;;;;7.37;89.33;102371.28;1042187;28;20288;-75
2022/05/01 01:38:18;;;;;;;13.02;11.75;;;;;;;7.52;89.41;102368.91;1038850;28;20296;-76
2022/05/01 01:38:50;;;;;;;14.60;13.00;;;;;;;7.52;89.73;102361.78;1044101;28;20662;-75
2022/05/01 01:39:23;;;;;;;15.65;12.68;;;;;;;7.29;89.79;102373.91;1040096;28;20280;-76
2022/05/01 01:39:55;;;;;;;12.55;11.32;;;;;;;7.26;90.36;102368.91;1039092;28;20305;-75
2022/05/01 01:40:31;;;;;;;14.25;12.90;;;;;;;7.38;90.43;102372.94;1039950;28;20817;-75
2022/05/01 01:41:07;;;;;;;15.00;13.25;;;;;;;7.53;90.82;102371.38;1037230;28;20288;-76
2022/05/01 01:41:41;;;;;;;18.00;12.25;;;;;;;7.62;89.92;102374.91;1038918;28;20292;-75
2022/05/01 01:42:13;;;;;;;13.90;12.50;;;;;;;7.58;90.04;102369.09;1042205;28;20817;-75
2022/05/01 01:42:46;;;;;;;15.95;11.55;;;;;;;7.67;90.11;102372.59;1044335;28;20299;-75
2022/05/01 01:43:20;;;;;;;14.40;12.07;;;;;;;7.65;89.74;102380.72;1044292;28;20434;-75
2022/05/01 01:43:52;;;;;;;13.70;12.23;;;;;;;7.74;89.38;102379.78;1044010;28;20299;-75
2022/05/01 01:44:25;;;;;;;14.45;12.80;;;;;;;7.75;89.99;102370.00;1044293;28;20287;-75
2022/05/01 01:44:56;;;;;;;15.65;13.13;;;;;;;7.77;89.22;102375.97;1044018;28;20801;-75
2022/05/01 01:45:28;;;;;;;14.60;12.93;;;;;;;7.72;89.84;102371.16;1040698;28;20300;-75
2022/05/01 01:46:00;;;;;;;16.02;12.45;;;;;;;7.73;90.18;102372.81;1044957;28;20303;-78
2022/05/01 01:46:32;;;;;;;13.82;12.10;;;;;;;7.77;90.47;102367.19;1044037;28;20303;-78
2022/05/01 01:47:05;;;;;;;14.43;12.93;;;;;;;7.76;90.10;102371.66;1043496;28;20303;-79
2022/05/01 01:47:37;;;;;;;13.25;11.85;;;;;;;7.69;90.45;102382.09;1044515;28;20302;-79
2022/05/01 01:48:17;;;;;;;15.30;12.52;;;;;;;7.71;89.70;102373.97;1043978;28;20300;-79
2022/05/01 01:48:49;;;;;;;13.10;11.80;;;;;;;7.69;88.98;102366.16;1042501;28;20303;-75
2022/05/01 01:49:20;;;;;;;13.77;12.30;;;;;;;7.60;89.51;102375.06;1039595;28;20300;-75
2022/05/01 01:49:52;;;;;;;13.95;11.90;;;;;;;7.46;89.02;102369.53;1040240;28;20280;-75
2022/05/01 01:50:24;;;;;;;13.00;11.75;;;;;;;7.45;89.40;102374.00;1040067;28;20304;-75
2022/05/01 01:51:03;;;;;;;15.73;12.57;;;;;;;7.53;88.98;102374.03;1040555;28;20366;-76
2022/05/01 01:51:35;;;;;;;13.18;11.98;;;;;;;7.52;88.91;102377.69;1039797;28;20333;-74
2022/05/01 01:52:06;;;;;;;16.17;12.75;;;;;;;7.52;88.75;102369.72;1039905;28;20304;-75
2022/05/01 01:52:38;;;;;;;13.95;11.30;;;;;;;7.53;88.35;102371.38;1039980;28;20302;-74
2022/05/01 01:53:11;;;;;;;13.63;11.65;;;;;;;7.50;88.87;102365.56;1040362;28;20303;-75
2022/05/01 01:53:43;;;;;;;15.48;12.98;;;;;;;7.41;89.30;102367.38;1044064;28;20785;-75
2022/05/01 01:54:14;;;;;;;13.45;12.10;;;;;;;7.37;89.47;102376.59;1041902;28;20362;-77
2022/05/01 01:54:46;;;;;;;13.43;11.60;;;;;;;7.39;89.57;102379.91;1044496;28;20307;-75
2022/05/01 01:55:18;;;;;;;12.15;11.05;;;;;;;7.44;90.10;102377.66;1044293;28;20669;-75
2022/05/01 01:55:49;;;;;;;19.60;12.07;;;;;;;7.40;89.87;102371.00;1044116;28;20801;-74
2022/05/01 01:56:21;;;;;;;14.80;12.73;;;;;;;7.31;90.24;102371.94;1043760;28;20311;-75
2022/05/01 01:56:53;;;;;;;14.60;13.00;;;;;;;7.38;90.58;102371.13;1044563;28;20295;-75
2022/05/01 01:57:24;;;;;;;13.90;12.50;;;;;;;7.29;90.59;102368.59;1044325;28;20303;-75
2022/05/01 01:57:56;;;;;;;14.13;12.73;;;;;;;7.34;89.98;102369.78;1044301;28;20634;-74
2022/05/01 01:58:28;;;;;;;14.02;12.63;;;;;;;7.35;89.91;102363.50;1044597;28;20302;-74
2022/05/01 01:59:00;;;;;;;14.15;12.75;;;;;;;7.29;90.37;102368.59;1044134;28;20306;-74
2022/05/01 01:59:31;;;;;;;16.58;12.57;;;;;;;7.38;90.76;102365.00;1044137;28;20299;-75
2022/05/01 02:00:04;;;;;;;14.48;12.98;;;;;;;7.32;90.18;102370.94;1044652;28;20785;-74
2022/05/01 02:00:43;;;;;;;14.57;13.02;;;;;;;7.12;90.42;102367.66;1043773;28;20356;-74
2022/05/01 02:01:14;;;;;;;15.52;14.05;;;;;;;7.07;91.04;102359.34;1043948;28;20299;-74
2022/05/01 02:01:46;;;;;;;14.25;12.90;;;;;;;7.12;91.21;102368.53;1043999;28;20299;-75
2022/05/01 02:02:17;;;;;;;14.07;12.63;;;;;;;7.22;91.20;102364.91;1044299;28;20288;-74
2022/05/01 02:02:56;;;;;;;14.70;12.30;;;;;;;7.31;91.24;102366.63;1044289;28;20295;-75
2022/05/01 02:03:28;;;;;;;14.48;11.93;;;;;;;7.30;90.84;102375.56;1043860;28;20299;-75
2022/05/01 02:04:00;;;;;;;13.45;12.15;;;;;;;7.43;91.23;102362.72;1043959;28;20308;-75
2022/05/01 02:04:31;;;;;;;13.75;12.55;;;;;;;7.47;90.62;102361.41;1044296;28;20369;-75
2022/05/01 02:05:04;;;;;;;15.55;14.05;;;;;;;7.52;90.75;102361.78;1043929;28;20298;-74
2022/05/01 02:05:36;;;;;;;15.65;14.10;;;;;;;7.43;91.43;102360.06;1043996;28;20294;-75
2022/05/01 02:06:08;;;;;;;15.70;14.05;;;;;;;7.28;91.03;102356.34;1040013;28;20304;-74
2022/05/01 02:06:40;;;;;;;15.80;13.68;;;;;;;7.26;90.89;102364.44;1039721;28;20300;-74
2022/05/01 02:07:11;;;;;;;15.50;14.05;;;;;;;7.22;90.96;102362.28;1036425;28;20640;-75
2022/05/01 02:07:43;;;;;;;14.98;13.50;;;;;;;7.31;91.06;102356.03;1035889;28;20300;-75
2022/05/01 02:08:16;;;;;;;15.38;13.65;;;;;;;7.30;90.52;102362.31;1036107;28;20308;-74
2022/05/01 02:08:48;;;;;;;17.60;13.73;;;;;;;7.37;90.21;102358.03;1032247;28;20297;-74
2022/05/01 02:09:19;;;;;;;13.93;12.57;;;;;;;7.42;89.78;102363.72;1036392;28;20430;-74
2022/05/01 02:09:51;;;;;;;16.92;13.70;;;;;;;7.42;89.45;102355.75;1039851;28;20327;-75
2022/05/01 02:10:23;;;;;;;15.25;13.65;;;;;;;7.45;89.25;102355.44;1040382;28;20319;-75
2022/05/01 02:10:54;;;;;;;19.00;13.68;;;;;;;7.43;88.90;102350.31;1044188;28;20291;-75
2022/05/01 02:11:26;;;;;;;18.30;13.80;;;;;;;7.46;89.20;102349.16;1043882;28;20311;-75
2022/05/01 02:11:57;;;;;;;14.88;13.43;;;;;;;7.43;89.26;102347.66;1043822;28;20356;-74
2022/05/01 02:12:29;;;;;;;15.05;13.30;;;;;;;7.42;88.83;102347.81;1044028;28;20346;-74
2022/05/01 02:13:02;;;;;;;15.13;13.52;;;;;;;7.43;88.67;102352.13;1042984;28;20772;-74
2022/05/01 02:13:34;;;;;;;13.70;12.30;;;;;;;7.42;88.76;102353.13;1043535;28;20314;-74
2022/05/01 02:14:06;;;;;;;17.60;14.73;;;;;;;7.40;88.95;102349.78;1044302;28;20299;-74
2022/05/01 02:14:38;;;;;;;13.70;12.30;;;;;;;7.33;89.27;102349.56;1036566;28;20791;-75
2022/05/01 02:15:10;;;;;;;15.35;13.85;;;;;;;7.32;89.08;102347.91;1035094;28;20304;-74
2022/05/01 02:16:09;;;;;;;18.05;13.48;;;;;;;7.32;89.61;102352.38;1031877;28;20303;-74
2022/05/01 02:16:41;;;;;;;12.85;11.70;;;;;;;7.32;89.50;102347.91;1038499;28;20299;-75
2022/05/01 02:17:12;;;;;;;15.10;13.30;;;;;;;7.27;89.77;102352.03;1044241;28;20374;-75
2022/05/01 02:17:45;;;;;;;15.82;12.52;;;;;;;7.29;89.92;102352.69;1044349;28;20418;-75
2022/05/01 02:18:17;;;;;;;13.38;11.95;;;;;;;7.30;89.30;102347.25;1044454;28;20287;-74
2022/05/01 02:18:49;;;;;;;14.07;12.75;;;;;;;7.28;89.47;102345.75;1041703;28;20300;-77
2022/05/01 02:19:23;;;;;;;13.95;12.40;;;;;;;7.26;89.54;102342.41;1044193;28;20299;-74
2022/05/01 02:19:54;;;;;;;18.00;13.82;;;;;;;7.23;89.38;102350.69;1044035;28;20362;-74
2022/05/01 02:20:27;;;;;;;13.15;11.82;;;;;;;7.20;89.63;102351.84;1044223;28;20341;-74
2022/05/01 02:21:49;;;;;;;15.63;11.95;;;;;;;7.18;90.15;102351.16;1039266;28;20288;-75
2022/05/01 02:22:21;;;;;;;18.08;12.88;;;;;;;7.12;90.08;102347.31;1039922;28;20304;-78
2022/05/01 02:22:53;;;;;;;13.98;12.52;;;;;;;7.05;90.58;102353.38;1041320;28;20303;-79
2022/05/01 02:23:25;;;;;;;13.88;12.35;;;;;;;7.01;90.55;102352.88;1039027;28;20299;-78
2022/05/01 02:23:57;;;;;;;14.10;12.55;;;;;;;6.94;90.93;102338.59;1035614;28;20637;-78
2022/05/01 02:24:31;;;;;;;15.10;13.57;;;;;;;6.96;91.54;102347.22;1031863;28;20297;-78
2022/05/01 02:25:03;;;;;;;14.27;12.82;;;;;;;7.01;91.39;102344.91;1032944;28;20756;-78
2022/05/01 02:25:36;;;;;;;14.73;13.23;;;;;;;7.10;91.50;102348.44;1036601;28;20304;-79
2022/05/01 02:26:07;;;;;;;17.52;13.45;;;;;;;7.08;92.07;102345.94;1040487;28;20315;-78
2022/05/01 02:26:39;;;;;;;17.05;13.68;;;;;;;7.18;91.38;102347.69;1040122;28;20689;-78
2022/05/01 02:27:12;;;;;;;14.65;13.18;;;;;;;7.23;90.74;102342.72;1039834;28;20300;-76
2022/05/01 02:27:45;;;;;;;14.38;12.88;;;;;;;7.26;90.79;102337.94;1037536;28;20292;-78
2022/05/01 02:28:17;;;;;;;14.07;12.63;;;;;;;7.30;90.01;102338.47;1040407;28;20631;-78
2022/05/01 02:28:48;;;;;;;13.23;11.93;;;;;;;7.32;89.27;102341.78;1044018;28;20323;-78
2022/05/01 02:29:20;;;;;;;14.63;13.00;;;;;;;7.31;89.53;102335.66;1043847;28;20306;-77
2022/05/01 02:29:52;;;;;;;14.20;12.35;;;;;;;7.33;89.17;102332.84;1043932;28;20299;-78
2022/05/01 02:30:26;;;;;;;17.13;12.88;;;;;;;7.32;89.42;102347.06;1044481;28;21523;-78
2022/05/01 02:30:57;;;;;;;18.42;12.88;;;;;;;7.32;88.86;102337.31;1044090;28;20785;-78
2022/05/01 02:31:29;;;;;;;16.38;13.00;;;;;;;7.36;88.96;102338.66;1043915;28;20327;-78
2022/05/01 02:32:00;;;;;;;15.07;13.15;;;;;;;7.35;88.77;102338.81;1043365;28;21812;-78
2022/05/01 02:32:32;;;;;;;17.73;12.15;;;;;;;7.33;89.00;102338.97;1044781;28;20299;-76
2022/05/01 02:33:06;;;;;;;14.55;13.02;;;;;;;7.29;89.24;102336.78;1039853;28;20669;-74
2022/05/01 02:33:38;;;;;;;16.42;13.07;;;;;;;7.32;88.41;102326.69;1040168;28;20303;-75
2022/05/01 02:34:11;;;;;;;14.27;12.85;;;;;;;7.31;88.98;102330.34;1044147;28;20280;-75
2022/05/01 02:34:42;;;;;;;16.20;12.93;;;;;;;7.27;88.63;102330.81;1040741;28;20296;-75
2022/05/01 02:35:14;;;;;;;14.98;12.23;;;;;;;7.31;88.84;102334.81;1043396;28;20314;-74
2022/05/01 02:35:46;;;;;;;13.35;12.10;;;;;;;7.25;89.29;102330.16;1039954;28;20399;-74
2022/05/01 02:36:17;;;;;;;12.85;11.65;;;;;;;7.32;89.14;102331.19;1036130;28;20360;-75
2022/05/01 02:36:52;;;;;;;18.80;12.88;;;;;;;7.30;89.15;102330.50;1039504;28;20304;-76
2022/05/01 02:37:24;;;;;;;15.63;12.68;;;;;;;7.28;89.43;102333.31;1036649;28;20288;-76
2022/05/01 02:37:56;;;;;;;15.73;12.38;;;;;;;7.27;88.55;102333.47;1038509;28;20297;-74
2022/05/01 02:38:28;;;;;;;14.82;11.98;;;;;;;7.27;89.00;102328.19;1043880;28;20302;-75
2022/05/01 02:38:59;;;;;;;14.13;12.73;;;;;;;7.28;88.98;102330.66;1044056;28;20306;-74